Overview Statistics Trail Chart Weather Telemetry Raw packets
 

This is the latest recevied weather packets stored in our database for station/object NK7E-2. If no packets are shown the sender has not sent any weather packets the latest 10 day(s).

<< 10 11 12 13 14 15 16 >>
Time Temp. Humidity Pressure Rain* Wind** Luminosity Snow
1788291017 30° C 43% 1028.2 hPa 0 mm - - -
1788290417 30° C 44% 1028.2 hPa 0 mm - - -
1788289817 30° C 45% 1028.2 hPa 0 mm - - -
1788289217 29.44° C 46% 1028.4 hPa 0 mm - - -
1788288617 30° C 45% 1028.4 hPa 0 mm - - -
1788288017 29.44° C 47% 1028.5 hPa 0 mm - - -
1788287417 28.89° C 48% 1028.5 hPa 0 mm - - -
1788286817 28.89° C 49% 1028.4 hPa 0 mm - - -
1788286217 28.33° C 51% 1028.5 hPa 0 mm - - -
1788285617 28.33° C 50% 1028.8 hPa 0 mm - - -
1788285017 28.33° C 50% 1028.8 hPa 0 mm - - -
1788284417 28.33° C 51% 1029 hPa 0 mm - - -
1788283817 27.78° C 53% 1028.9 hPa 0 mm - - -
1788283216 27.22° C 52% 1029 hPa 0 mm - - -
1788282617 27.22° C 53% 1028.8 hPa 0 mm - - -
1788282016 26.67° C 57% 1028.6 hPa 0 mm - - -
1788281416 26.11° C 60% 1028.6 hPa 0 mm - - -
1788280816 25.56° C 63% 1028.5 hPa 0 mm - - -
1788280216 25° C 65% 1028.2 hPa 0 mm - - -
1788279616 25° C 65% 1028.6 hPa 0 mm - - -
1788279016 24.44° C 66% 1028 hPa 0 mm - - -
1788278416 23.89° C 69% 1028.1 hPa 0 mm - - -
1788277816 23.33° C 71% 1028 hPa 0 mm - - -
1788277216 23.33° C 74% 1027.7 hPa 0 mm - - -
1788276616 22.78° C 75% 1027.9 hPa 0 mm - - -

* Rain latest hour (hover to see other rain measurements)
** Current wind speed in m/s (hover to see current wind gust speed)